Time;durP1;ratioP1;P1;durP2;ratioP2;P2;SDS_P1;SDS_P2;PMS_P1;PMS_P2;Temp;Humidity;BMP_temperature;BMP_pressure;BME280_temperature;BME280_humidity;BME280_pressure;Samples;Min_cycle;Max_cycle;Signal;HPM_P1;HPM_P2
2021/12/19 00:02:38;;;;;;;30.53;13.90;;;;;;;0.01;97.52;97346.00;5116075;28;20441;-35
2021/12/19 00:10:36;;;;;;;18.10;12.00;;;;;;;-0.19;96.24;97341.00;5115820;28;20547;-38
2021/12/19 00:13:04;;;;;;;17.13;11.40;;;;;;;-0.27;95.91;97344.38;5115636;28;20453;-38
2021/12/19 00:15:32;;;;;;;25.37;11.13;;;;;;;-0.32;95.36;97345.78;5116348;28;20446;-38
2021/12/19 00:17:59;;;;;;;24.97;9.47;;;;;;;-0.42;94.97;97332.88;5115468;28;20442;-38
2021/12/19 00:20:26;;;;;;;23.27;9.60;;;;;;;-0.53;94.90;97360.03;5115298;28;20444;-39
2021/12/19 00:22:54;;;;;;;32.87;12.50;;;;;;;-0.51;94.78;97337.22;5115174;28;20925;-39
2021/12/19 00:25:21;;;;;;;30.50;12.90;;;;;;;-0.53;94.79;97341.75;5114896;28;20444;-38
2021/12/19 00:27:48;;;;;;;28.73;10.47;;;;;;;-0.53;95.39;97339.16;5115318;28;20444;-39
2021/12/19 00:30:17;;;;;;;20.03;13.83;;;;;;;-0.53;95.69;97339.16;5115120;28;20466;-38
2021/12/19 00:32:44;;;;;;;28.70;18.07;;;;;;;-0.53;95.67;97343.56;5115191;28;20445;-38
2021/12/19 00:35:11;;;;;;;26.03;13.70;;;;;;;-0.56;95.47;97339.47;5115122;28;20864;-39
2021/12/19 00:37:39;;;;;;;19.40;12.87;;;;;;;-0.59;95.33;97339.75;5115126;28;20445;-39
2021/12/19 00:40:07;;;;;;;21.47;13.20;;;;;;;-0.63;95.38;97333.22;5115438;28;20448;-39
2021/12/19 00:42:36;;;;;;;27.57;15.80;;;;;;;-0.67;95.27;97326.66;5115336;28;20659;-38
2021/12/19 00:45:15;;;;;;;24.73;13.20;;;;;;;-0.72;95.62;97329.72;5115288;28;20446;-39
2021/12/19 00:47:45;;;;;;;23.63;11.87;;;;;;;-0.71;96.19;97322.72;5114900;28;20427;-39
2021/12/19 00:50:14;;;;;;;23.90;10.60;;;;;;;-0.85;96.92;97301.44;5114903;28;20441;-39
2021/12/19 00:52:41;;;;;;;8.33;6.53;;;;;;;-0.74;97.52;97323.03;5114787;28;20442;-38
2021/12/19 00:55:09;;;;;;;14.50;8.10;;;;;;;-0.76;98.12;97317.16;5114669;28;20490;-39
2021/12/19 00:57:36;;;;;;;10.50;7.67;;;;;;;-0.72;98.86;97313.28;5114992;28;20445;-39
2021/12/19 01:00:06;;;;;;;10.67;6.97;;;;;;;-0.68;98.98;97309.41;5114578;28;20441;-38
2021/12/19 01:02:34;;;;;;;19.10;8.60;;;;;;;-0.64;99.06;97310.72;5114869;28;20438;-39
2021/12/19 01:05:03;;;;;;;12.33;7.80;;;;;;;-0.64;99.25;97311.53;5114530;28;20445;-39
2021/12/19 01:07:31;;;;;;;15.77;10.43;;;;;;;-0.61;99.31;97307.81;5114538;28;20438;-39
2021/12/19 01:09:59;;;;;;;29.17;15.97;;;;;;;-0.60;98.65;97306.84;5114464;28;20438;-39
2021/12/19 01:12:26;;;;;;;27.77;13.80;;;;;;;-0.73;98.77;97296.81;5114738;28;20442;-39
2021/12/19 01:14:54;;;;;;;26.80;13.70;;;;;;;-0.59;98.17;97295.41;5114375;28;20977;-39
2021/12/19 01:17:22;;;;;;;23.80;14.40;;;;;;;-0.60;97.88;97300.78;5114811;28;20807;-40
2021/12/19 01:19:49;;;;;;;23.40;14.60;;;;;;;-0.62;97.45;97299.16;5114702;27;20448;-39
2021/12/19 01:22:18;;;;;;;25.67;17.00;;;;;;;-0.63;97.47;97286.25;5114360;28;20444;-40
2021/12/19 01:24:45;;;;;;;23.83;14.07;;;;;;;-0.61;97.71;97289.53;5114361;28;20448;-39
2021/12/19 01:27:12;;;;;;;23.47;13.10;;;;;;;-0.60;97.76;97290.34;5114230;28;20441;-35
2021/12/19 01:29:39;;;;;;;18.37;12.60;;;;;;;-0.59;97.95;97281.56;5114092;28;20474;-37
2021/12/19 01:32:07;;;;;;;28.40;12.60;;;;;;;-0.59;97.52;97277.16;5114123;28;20445;-36
2021/12/19 01:34:35;;;;;;;16.20;9.87;;;;;;;-0.60;97.25;97272.09;5114050;28;20477;-35
2021/12/19 01:37:02;;;;;;;18.50;10.30;;;;;;;-0.61;97.58;97273.88;5113759;28;20442;-38
2021/12/19 01:39:30;;;;;;;19.57;10.30;;;;;;;-0.66;97.57;97268.34;5114024;28;20446;-35
2021/12/19 01:41:59;;;;;;;22.17;10.00;;;;;;;-0.63;97.88;97270.63;5114050;28;20438;-35
2021/12/19 01:44:27;;;;;;;37.00;14.23;;;;;;;-0.64;97.81;97266.38;5114341;28;20533;-34
2021/12/19 01:46:55;;;;;;;43.50;23.00;;;;;;;-0.67;97.52;97258.84;5113969;28;20440;-36
2021/12/19 01:49:23;;;;;;;51.17;20.17;;;;;;;-0.69;97.29;97256.41;5113928;28;20442;-34
2021/12/19 01:51:50;;;;;;;33.87;18.17;;;;;;;-0.69;97.02;97256.41;5113859;28;20438;-34
2021/12/19 01:54:18;;;;;;;36.53;15.93;;;;;;;-0.72;96.54;97245.47;5113823;28;20486;-35
2021/12/19 01:56:47;;;;;;;32.50;16.10;;;;;;;-0.75;96.51;97257.03;5113896;28;20618;-35
2021/12/19 01:59:14;;;;;;;32.40;13.37;;;;;;;-0.76;96.32;97249.34;5114211;28;20437;-34
2021/12/19 02:01:43;;;;;;;23.80;14.13;;;;;;;-0.80;96.14;97245.41;5114111;28;20446;-35
2021/12/19 02:04:11;;;;;;;23.37;15.27;;;;;;;-0.83;96.01;97249.97;5114059;28;20437;-36
2021/12/19 02:06:39;;;;;;;15.57;12.47;;;;;;;-0.86;95.91;97246.84;5114887;28;20442;-35
2021/12/19 02:09:07;;;;;;;12.50;8.10;;;;;;;-0.91;96.07;97242.09;5113975;28;20438;-35
2021/12/19 02:11:35;;;;;;;10.50;6.80;;;;;;;-0.92;96.78;97235.25;5114554;28;20438;-35
2021/12/19 02:14:05;;;;;;;9.53;6.50;;;;;;;-0.91;97.71;97239.47;5113904;28;20503;-34
2021/12/19 02:16:33;;;;;;;13.43;6.80;;;;;;;-0.89;97.84;97226.28;5114230;28;20440;-34
2021/12/19 02:19:00;;;;;;;17.10;6.23;;;;;;;-0.99;98.06;97213.38;5113914;28;20525;-35
2021/12/19 02:21:30;;;;;;;8.40;5.30;;;;;;;-0.90;98.58;97220.28;5113905;28;20926;-34
2021/12/19 02:23:58;;;;;;;7.73;4.90;;;;;;;-0.96;98.63;97213.06;5113896;28;20442;-35
2021/12/19 02:26:25;;;;;;;12.47;5.10;;;;;;;-0.92;98.90;97214.38;5113618;28;20449;-35
2021/12/19 02:28:53;;;;;;;7.23;4.40;;;;;;;-0.94;99.27;97205.91;5113365;28;20835;-34
2021/12/19 02:31:21;;;;;;;15.93;5.60;;;;;;;-0.90;99.33;97216.84;5113509;28;20442;-36
2021/12/19 02:34:01;;;;;;;6.30;5.10;;;;;;;-0.89;99.29;97214.06;5113840;28;20798;-38
2021/12/19 02:36:43;;;;;;;8.40;5.40;;;;;;;-0.86;99.16;97203.34;5113488;28;20438;-39
2021/12/19 02:39:34;;;;;;;16.67;7.70;;;;;;;-0.85;99.20;97198.94;5114044;28;20442;-38
2021/12/19 02:50:18;;;;;;;9.60;6.87;;;;;;;-0.81;99.52;97189.03;5117365;28;20402;-39
2021/12/19 02:52:47;;;;;;;15.13;8.23;;;;;;;-0.90;99.42;97167.31;5117137;28;21000;-39
2021/12/19 02:55:16;;;;;;;9.60;5.07;;;;;;;-0.85;99.39;97173.69;5117344;28;20837;-39
2021/12/19 02:57:44;;;;;;;18.03;8.50;;;;;;;-0.84;99.63;97183.16;5117319;28;20440;-39
2021/12/19 03:00:13;;;;;;;6.43;5.63;;;;;;;-0.81;99.61;97178.59;5116981;28;20847;-39
2021/12/19 03:02:41;;;;;;;9.97;6.70;;;;;;;-1.00;100.00;97143.97;5116886;28;20442;-39
2021/12/19 03:05:09;;;;;;;18.27;9.43;;;;;;;-0.75;99.53;97184.03;5116869;28;20434;-38
2021/12/19 03:07:41;;;;;;;25.33;13.40;;;;;;;-0.76;99.91;97190.19;5116872;28;20434;-39
2021/12/19 03:10:41;;;;;;;22.20;10.10;;;;;;;-0.74;99.89;97184.81;5116848;28;20470;-39
2021/12/19 03:13:18;;;;;;;14.70;7.63;;;;;;;-0.69;99.86;97195.59;5116615;28;20945;-39
2021/12/19 03:18:32;;;;;;;30.40;10.07;;;;;;;-0.70;99.77;97191.38;5117425;28;20403;-39
2021/12/19 03:21:00;;;;;;;31.80;8.30;;;;;;;-0.65;99.85;97178.66;5116636;28;20444;-38
2021/12/19 03:23:27;;;;;;;15.47;7.47;;;;;;;-0.58;100.00;97189.28;5116536;27;20450;-38
2021/12/19 03:25:56;;;;;;;14.80;8.10;;;;;;;-0.55;99.89;97174.16;5116522;28;20922;-38
2021/12/19 03:28:23;;;;;;;15.93;8.20;;;;;;;-0.55;99.37;97176.75;5116548;28;20470;-39
2021/12/19 03:30:51;;;;;;;11.73;6.47;;;;;;;-0.53;99.90;97176.63;5116402;28;20427;-39
2021/12/19 03:33:18;;;;;;;10.67;5.57;;;;;;;-0.52;99.93;97173.84;5117111;28;20444;-39
2021/12/19 03:35:45;;;;;;;10.50;5.70;;;;;;;-0.49;100.00;97177.94;5116198;28;20569;-38
2021/12/19 03:38:15;;;;;;;8.13;5.60;;;;;;;-0.46;99.64;97178.44;5116267;28;20793;-38
2021/12/19 03:40:51;;;;;;;13.70;6.80;;;;;;;-0.42;99.47;97165.88;5116182;28;21005;-39
2021/12/19 03:43:22;;;;;;;11.30;5.60;;;;;;;-0.39;99.09;97169.97;5116269;28;20422;-39
2021/12/19 03:45:50;;;;;;;13.03;5.60;;;;;;;-0.39;98.79;97162.16;5116404;28;20472;-38
2021/12/19 03:48:19;;;;;;;6.93;3.93;;;;;;;-0.43;98.64;97162.47;5116143;28;20933;-38
2021/12/19 03:50:49;;;;;;;4.97;3.70;;;;;;;-0.38;97.88;97158.56;5116323;28;20442;-39
2021/12/19 03:53:19;;;;;;;9.53;3.50;;;;;;;-0.39;98.17;97157.72;5116307;28;20484;-37
2021/12/19 03:55:46;;;;;;;8.83;4.80;;;;;;;-0.43;98.04;97167.69;5115820;28;20485;-34
2021/12/19 03:58:14;;;;;;;6.73;3.80;;;;;;;-0.40;98.13;97160.53;5115022;28;20442;-34
2021/12/19 04:00:44;;;;;;;8.57;5.07;;;;;;;-0.45;97.81;97148.78;5116206;28;20450;-36
2021/12/19 04:03:17;;;;;;;9.83;5.77;;;;;;;-0.39;98.00;97152.53;5115755;28;20442;-38
2021/12/19 04:05:45;;;;;;;16.43;7.30;;;;;;;-0.43;97.91;97143.38;5115815;28;20495;-35
2021/12/19 04:08:13;;;;;;;8.00;5.93;;;;;;;-0.43;97.75;97136.38;5115663;28;20445;-35
2021/12/19 04:10:40;;;;;;;15.23;8.73;;;;;;;-0.44;97.30;97144.38;5115633;28;20438;-36
2021/12/19 04:13:08;;;;;;;7.40;5.30;;;;;;;-0.53;96.96;97140.91;5115571;28;20441;-35
2021/12/19 04:15:36;;;;;;;18.13;6.40;;;;;;;-0.54;96.91;97123.59;5116296;28;20486;-36
2021/12/19 04:18:05;;;;;;;7.97;5.90;;;;;;;-0.51;96.80;97128.53;5115484;28;20442;-35
2021/12/19 04:20:32;;;;;;;9.20;5.20;;;;;;;-0.54;96.51;97134.03;5115564;27;20442;-35
2021/12/19 04:23:00;;;;;;;13.23;6.50;;;;;;;-0.58;96.27;97131.91;5115763;28;20519;-35
2021/12/19 04:25:27;;;;;;;15.03;5.83;;;;;;;-0.60;96.26;97136.47;5116200;28;20442;-34
2021/12/19 04:27:55;;;;;;;16.20;7.20;;;;;;;-0.69;96.21;97135.63;5115652;28;20453;-35
2021/12/19 04:30:25;;;;;;;12.43;6.30;;;;;;;-0.75;96.99;97131.88;5115028;28;20549;-35
2021/12/19 04:32:59;;;;;;;8.70;5.40;;;;;;;-0.78;96.87;97129.56;5115582;28;20438;-34
2021/12/19 04:35:33;;;;;;;28.53;8.00;;;;;;;-0.81;97.13;97131.69;5115151;28;20472;-35
2021/12/19 04:40:58;;;;;;;8.33;5.73;;;;;;;-0.83;97.45;97132.63;5115078;28;20496;-34
2021/12/19 04:52:06;;;;;;;9.60;5.73;;;;;;;-0.98;97.44;97117.75;5115320;28;20451;-35
2021/12/19 04:54:50;;;;;;;7.47;4.90;;;;;;;-0.97;97.49;97112.34;5115069;28;20463;-35
2021/12/19 04:57:30;;;;;;;6.20;4.10;;;;;;;-0.94;97.98;97117.28;5115643;28;20501;-39
2021/12/19 05:00:01;;;;;;;10.70;6.57;;;;;;;-0.88;98.37;97111.44;5114714;28;20466;-39
2021/12/19 05:02:40;;;;;;;9.33;4.87;;;;;;;-0.83;98.61;97109.16;5115018;28;20828;-38
2021/12/19 05:16:16;;;;;;;22.77;8.10;;;;;;;-0.52;97.22;97094.75;5114458;28;20903;-39
2021/12/19 05:18:45;;;;;;;13.80;7.40;;;;;;;-0.54;97.19;97087.09;5114427;28;20430;-39
2021/12/19 05:21:17;;;;;;;67.63;24.97;;;;;;;-0.40;97.12;97098.72;5114341;28;20438;-39
2021/12/19 05:26:33;;;;;;;33.27;25.27;;;;;;;-0.32;97.14;97095.28;5105075;28;20898;-39
2021/12/19 05:29:00;;;;;;;21.80;12.83;;;;;;;-0.28;97.15;97091.38;5112032;28;20476;-39
2021/12/19 05:31:27;;;;;;;19.57;11.40;;;;;;;-0.27;97.08;97093.03;5112063;28;20446;-39
2021/12/19 05:33:54;;;;;;;10.50;7.00;;;;;;;-0.29;96.68;97092.38;5112046;28;20438;-39
2021/12/19 05:47:19;;;;;;;18.33;9.27;;;;;;;-0.19;96.63;97080.00;5094395;28;20494;-40
2021/12/19 05:49:46;;;;;;;23.00;10.60;;;;;;;-0.19;96.56;97077.41;5111332;28;20438;-39
2021/12/19 05:52:13;;;;;;;22.77;10.00;;;;;;;-0.18;96.34;97065.97;5111859;28;20449;-39
2021/12/19 05:54:42;;;;;;;17.17;11.60;;;;;;;-0.27;95.85;97053.91;5111887;28;20449;-39
2021/12/19 05:57:10;;;;;;;36.73;17.90;;;;;;;-0.20;95.98;97057.47;5112127;28;20446;-39
2021/12/19 05:59:38;;;;;;;27.00;12.37;;;;;;;-0.18;95.61;97060.75;5112041;28;20442;-39
2021/12/19 06:02:05;;;;;;;11.50;6.50;;;;;;;-0.17;94.99;97072.00;5111556;28;20445;-39
2021/12/19 06:04:32;;;;;;;12.63;7.87;;;;;;;-0.16;94.81;97058.78;5111446;28;20446;-39
2021/12/19 06:07:00;;;;;;;16.73;9.10;;;;;;;-0.13;94.89;97058.47;5111937;28;20582;-39
2021/12/19 06:09:27;;;;;;;12.87;8.30;;;;;;;-0.09;94.82;97064.19;5111667;28;20534;-39
2021/12/19 06:11:56;;;;;;;28.33;12.83;;;;;;;-0.08;94.59;97061.41;5111635;28;20446;-40
2021/12/19 06:14:23;;;;;;;27.93;10.93;;;;;;;-0.08;94.69;97050.97;5111980;28;20453;-40
2021/12/19 06:16:50;;;;;;;21.93;9.37;;;;;;;-0.11;94.01;97043.44;5111357;28;20566;-39
2021/12/19 06:19:18;;;;;;;11.53;8.53;;;;;;;-0.14;94.00;97046.41;5111638;28;20938;-39
2021/12/19 06:21:45;;;;;;;12.40;8.13;;;;;;;-0.07;94.20;97057.00;5112790;28;20799;-38
2021/12/19 06:24:12;;;;;;;16.17;10.53;;;;;;;-0.05;94.05;97060.25;5115635;28;20441;-38
2021/12/19 06:26:39;;;;;;;17.10;7.83;;;;;;;0.01;94.04;97064.03;5115649;28;20969;-36
2021/12/19 06:29:08;;;;;;;19.67;10.40;;;;;;;0.02;93.85;97071.69;5114852;28;20470;-36
2021/12/19 06:31:35;;;;;;;24.83;11.30;;;;;;;0.09;94.04;97077.09;5115601;28;20499;-35
2021/12/19 06:34:03;;;;;;;40.70;16.93;;;;;;;0.15;93.89;97072.03;5115500;28;20449;-39
2021/12/19 06:36:30;;;;;;;34.27;16.70;;;;;;;0.20;93.48;97058.47;5115355;27;20499;-38
2021/12/19 06:38:58;;;;;;;41.10;17.53;;;;;;;0.22;93.59;97053.91;5115543;28;20929;-35
2021/12/19 06:41:25;;;;;;;27.53;13.27;;;;;;;0.24;93.71;97059.78;5114896;28;20450;-37
2021/12/19 06:43:53;;;;;;;22.63;12.37;;;;;;;0.23;93.65;97045.06;5115319;28;20945;-35
2021/12/19 06:46:22;;;;;;;27.97;14.37;;;;;;;0.27;93.62;97051.59;5115619;28;20494;-35
2021/12/19 06:48:49;;;;;;;29.70;16.70;;;;;;;0.28;93.95;97047.19;5115193;28;20445;-36
2021/12/19 06:51:16;;;;;;;22.20;14.00;;;;;;;0.31;93.84;97039.84;5115577;28;20999;-37
2021/12/19 06:53:43;;;;;;;22.87;14.20;;;;;;;0.32;94.24;97036.28;5115406;28;20456;-35
2021/12/19 06:56:11;;;;;;;29.27;20.00;;;;;;;0.35;94.10;97042.97;5114602;28;20493;-36
2021/12/19 06:58:38;;;;;;;32.30;22.27;;;;;;;0.36;94.04;97032.31;5115328;28;20449;-36
2021/12/19 07:01:05;;;;;;;49.20;28.93;;;;;;;0.42;93.91;97030.84;5115271;28;20452;-38
2021/12/19 07:03:34;;;;;;;36.33;21.57;;;;;;;0.46;93.92;97026.94;5114927;28;20442;-35
2021/12/19 07:06:02;;;;;;;35.30;17.93;;;;;;;0.43;93.64;97031.66;5114847;28;20964;-36
2021/12/19 07:08:29;;;;;;;24.00;14.13;;;;;;;0.52;93.58;97017.63;5114795;27;20448;-38
2021/12/19 07:10:57;;;;;;;18.77;13.63;;;;;;;0.57;93.33;97028.38;5114749;28;20478;-36
2021/12/19 07:13:24;;;;;;;35.97;15.97;;;;;;;0.58;93.24;97017.75;5114811;28;20450;-35
2021/12/19 07:15:54;;;;;;;33.30;16.43;;;;;;;0.63;93.09;97025.09;5114966;28;20477;-35
2021/12/19 07:18:22;;;;;;;26.03;14.77;;;;;;;0.68;93.29;97009.72;5114664;28;20831;-35
2021/12/19 07:20:51;;;;;;;31.47;17.07;;;;;;;0.71;92.84;97009.41;5114515;28;20468;-36
2021/12/19 07:23:20;;;;;;;39.90;17.70;;;;;;;0.74;92.50;97013.47;5114524;28;20442;-38
2021/12/19 07:25:48;;;;;;;26.83;17.20;;;;;;;0.76;92.34;97006.28;5114792;28;20453;-38
2021/12/19 07:28:15;;;;;;;32.23;19.20;;;;;;;0.81;92.39;97004.75;5114168;28;20449;-39
2021/12/19 07:30:43;;;;;;;34.27;17.10;;;;;;;0.90;92.45;96991.66;5114458;27;20427;-39
2021/12/19 07:33:11;;;;;;;24.77;14.23;;;;;;;0.95;91.62;96984.94;5113153;28;20442;-39
2021/12/19 07:35:42;;;;;;;41.80;21.90;;;;;;;1.04;91.24;96971.84;5113747;28;20478;-36
2021/12/19 07:38:16;;;;;;;43.87;23.00;;;;;;;0.92;91.21;96951.28;5114358;28;20898;-38
2021/12/19 07:40:46;;;;;;;41.97;15.83;;;;;;;1.15;91.08;96969.63;5114248;28;20474;-39
2021/12/19 07:43:14;;;;;;;19.53;11.40;;;;;;;1.20;90.46;96969.91;5114496;28;20423;-39
2021/12/19 07:45:42;;;;;;;28.87;10.03;;;;;;;1.22;90.15;96962.72;5114033;28;20941;-39
2021/12/19 07:48:09;;;;;;;16.10;10.80;;;;;;;1.26;89.86;96959.78;5113621;28;20440;-39
2021/12/19 07:50:37;;;;;;;9.60;7.00;;;;;;;1.20;89.83;96946.38;5113999;28;20530;-39
2021/12/19 07:53:08;;;;;;;14.13;6.77;;;;;;;1.14;89.80;96931.41;5114335;28;20808;-39
2021/12/19 07:55:37;;;;;;;13.37;8.13;;;;;;;1.38;89.83;96950.53;5113921;28;20431;-39
2021/12/19 07:58:04;;;;;;;12.40;7.60;;;;;;;1.48;89.69;96945.88;5113823;28;20781;-37
2021/12/19 08:00:32;;;;;;;12.00;7.37;;;;;;;1.59;88.58;96953.34;5113581;28;20477;-36
2021/12/19 08:02:59;;;;;;;15.17;7.67;;;;;;;1.68;88.22;96967.16;5113762;28;20828;-39
2021/12/19 08:05:26;;;;;;;13.57;8.40;;;;;;;1.75;87.98;96956.81;5114064;28;20445;-39
2021/12/19 08:08:00;;;;;;;12.07;8.67;;;;;;;1.87;88.15;96952.75;5113634;28;20446;-37
2021/12/19 08:13:13;;;;;;;10.40;6.63;;;;;;;2.07;87.83;96958.31;5113213;28;20413;-39
2021/12/19 08:15:41;;;;;;;8.90;6.63;;;;;;;2.13;87.47;96941.88;5113495;27;20438;-36
2021/12/19 08:18:09;;;;;;;12.80;7.50;;;;;;;2.40;91.45;96956.16;5113692;28;20442;-39
2021/12/19 08:20:36;;;;;;;10.80;6.40;;;;;;;2.38;88.98;96950.28;5113453;28;20457;-39
2021/12/19 08:23:03;;;;;;;12.80;7.50;;;;;;;2.48;87.57;96947.41;5113372;28;20453;-39
2021/12/19 08:25:31;;;;;;;18.67;10.47;;;;;;;2.49;86.71;96956.88;5113923;28;20430;-38
2021/12/19 08:27:58;;;;;;;18.50;13.47;;;;;;;2.46;86.37;96942.34;5115373;28;20444;-38
2021/12/19 08:30:28;;;;;;;24.13;14.63;;;;;;;2.50;86.39;96947.25;5115165;28;20995;-38
2021/12/19 08:32:57;;;;;;;15.60;10.87;;;;;;;2.53;86.48;96947.66;5115258;28;20495;-38
2021/12/19 08:35:25;;;;;;;20.43;12.07;;;;;;;2.61;86.21;96954.63;5115147;28;20442;-38
2021/12/19 08:37:52;;;;;;;12.53;8.43;;;;;;;2.62;85.30;96943.13;5115083;27;20486;-38
2021/12/19 08:40:22;;;;;;;17.03;9.23;;;;;;;2.66;84.92;96942.59;5115836;28;20452;-39
2021/12/19 08:42:49;;;;;;;21.33;11.83;;;;;;;2.65;84.50;96930.50;5115327;28;20956;-38
2021/12/19 08:45:17;;;;;;;28.80;18.33;;;;;;;2.63;84.00;96926.44;5114641;28;20449;-38
2021/12/19 08:47:45;;;;;;;47.03;22.50;;;;;;;2.73;84.49;96937.47;5114939;28;20442;-39
2021/12/19 08:50:14;;;;;;;52.40;26.13;;;;;;;2.84;84.08;96929.13;5114937;28;20437;-39
2021/12/19 08:52:42;;;;;;;65.93;29.47;;;;;;;3.13;83.83;96927.41;5114833;28;20434;-39
2021/12/19 08:55:11;;;;;;;65.43;29.40;;;;;;;3.40;83.00;96919.78;5115136;28;20535;-39
2021/12/19 08:57:38;;;;;;;40.10;18.30;;;;;;;3.66;81.20;96912.16;5114771;28;20496;-39
2021/12/19 09:00:10;;;;;;;58.07;25.17;;;;;;;3.67;80.65;96913.78;5114723;28;20948;-38
2021/12/19 09:02:38;;;;;;;50.37;23.80;;;;;;;3.78;80.39;96903.75;5115005;28;20426;-39
2021/12/19 09:05:07;;;;;;;38.07;17.97;;;;;;;4.08;79.33;96905.19;5114993;28;20541;-39
2021/12/19 09:07:34;;;;;;;43.53;19.13;;;;;;;4.45;79.22;96905.81;5114893;28;20483;-39
2021/12/19 09:10:02;;;;;;;25.53;12.43;;;;;;;4.80;77.41;96903.16;5114516;27;20449;-39
2021/12/19 09:12:29;;;;;;;37.33;19.90;;;;;;;4.99;76.15;96895.50;5114505;28;20953;-39
2021/12/19 09:14:56;;;;;;;14.03;9.20;;;;;;;5.14;75.26;96888.25;5114426;28;20812;-39
2021/12/19 09:17:24;;;;;;;32.20;15.57;;;;;;;5.23;75.05;96892.34;5114345;28;20985;-39
2021/12/19 09:19:51;;;;;;;23.63;11.30;;;;;;;5.24;74.00;96891.31;5114700;28;20446;-39
2021/12/19 09:22:20;;;;;;;20.07;12.00;;;;;;;5.29;74.35;96878.38;5114317;28;20446;-39
2021/12/19 09:24:47;;;;;;;17.43;9.13;;;;;;;5.43;73.81;96866.03;5114618;28;20446;-39
2021/12/19 09:27:15;;;;;;;21.60;10.60;;;;;;;5.49;72.40;96854.69;5114440;28;20447;-39
2021/12/19 09:29:42;;;;;;;14.17;7.60;;;;;;;5.58;72.67;96852.66;5113973;28;20984;-38
2021/12/19 09:32:10;;;;;;;19.33;9.13;;;;;;;5.75;71.42;96843.31;5114454;27;20433;-38
2021/12/19 09:34:38;;;;;;;15.67;9.77;;;;;;;5.84;71.89;96849.19;5114173;28;20453;-35
2021/12/19 09:37:06;;;;;;;9.27;6.30;;;;;;;5.79;71.57;96837.66;5114356;28;20568;-38
2021/12/19 09:39:34;;;;;;;18.40;7.47;;;;;;;5.69;71.76;96836.22;5114365;28;20442;-38
2021/12/19 09:42:09;;;;;;;9.20;5.80;;;;;;;5.69;71.23;96841.50;5114076;28;20521;-35
2021/12/19 09:44:36;;;;;;;11.50;6.30;;;;;;;5.64;71.35;96807.06;5114046;28;20856;-34
2021/12/19 09:47:04;;;;;;;7.20;5.87;;;;;;;5.78;70.01;96833.41;5114020;28;20446;-37
2021/12/19 09:49:33;;;;;;;9.90;5.40;;;;;;;5.86;69.76;96817.38;5114247;28;20461;-32
2021/12/19 09:52:01;;;;;;;11.17;6.50;;;;;;;5.90;69.50;96800.13;5113920;28;20478;-36
2021/12/19 09:54:29;;;;;;;11.17;5.20;;;;;;;5.99;70.60;96814.75;5114199;28;20445;-34
2021/12/19 09:56:58;;;;;;;9.97;5.70;;;;;;;6.05;70.24;96815.75;5113233;28;20490;-36
2021/12/19 09:59:25;;;;;;;8.23;5.80;;;;;;;5.95;70.32;96810.88;5113938;28;20438;-36
2021/12/19 10:01:54;;;;;;;10.67;6.07;;;;;;;6.07;70.24;96803.97;5114095;28;20446;-36
2021/12/19 10:04:39;;;;;;;13.87;7.80;;;;;;;6.25;70.47;96802.50;5112345;28;20446;-40
2021/12/19 10:07:13;;;;;;;14.73;7.00;;;;;;;6.21;70.66;96788.91;5111646;28;20438;-39
2021/12/19 10:09:54;;;;;;;12.93;5.80;;;;;;;5.92;69.80;96763.84;5111854;28;20441;-39
2021/12/19 10:12:38;;;;;;;22.00;12.03;;;;;;;6.03;69.94;96778.25;5111613;28;21152;-39
2021/12/19 10:15:09;;;;;;;15.93;10.00;;;;;;;5.89;69.41;96772.16;5111961;28;20462;-39
2021/12/19 10:17:37;;;;;;;12.00;8.37;;;;;;;5.66;70.43;96773.44;5111145;28;20474;-40
2021/12/19 10:20:08;;;;;;;15.10;9.33;;;;;;;5.55;71.92;96768.78;5111494;28;20453;-39
2021/12/19 10:22:38;;;;;;;13.33;9.90;;;;;;;5.52;72.00;96756.81;5111567;28;20450;-40
2021/12/19 10:25:19;;;;;;;12.47;8.60;;;;;;;5.65;72.68;96763.91;5111949;28;20438;-40
2021/12/19 10:27:49;;;;;;;11.93;7.20;;;;;;;5.76;71.98;96749.28;5111926;28;20500;-39
2021/12/19 10:30:23;;;;;;;12.30;7.67;;;;;;;5.72;71.78;96732.25;5111059;28;20473;-40
2021/12/19 10:32:56;;;;;;;8.90;7.20;;;;;;;5.85;70.94;96732.25;5111460;28;20426;-40
2021/12/19 10:35:27;;;;;;;11.60;7.70;;;;;;;5.85;70.84;96732.25;5112681;28;20432;-39
2021/12/19 10:37:55;;;;;;;17.50;9.50;;;;;;;5.74;71.46;96720.53;5113740;28;20489;-40
2021/12/19 10:40:23;;;;;;;13.47;8.43;;;;;;;5.59;70.40;96701.50;5113432;28;20434;-39
2021/12/19 10:42:58;;;;;;;14.23;9.93;;;;;;;5.68;71.42;96712.66;5113423;28;20450;-39
2021/12/19 10:45:32;;;;;;;24.23;14.10;;;;;;;5.64;71.81;96695.63;5110875;28;20436;-40
2021/12/19 10:48:15;;;;;;;29.73;16.00;;;;;;;5.57;72.51;96693.03;5111390;28;20766;-40
2021/12/19 10:50:44;;;;;;;23.63;12.60;;;;;;;5.54;73.56;96672.34;5111422;28;20438;-40
2021/12/19 10:53:12;;;;;;;24.93;12.07;;;;;;;5.46;73.11;96677.84;5111648;28;20441;-40
2021/12/19 10:55:43;;;;;;;16.47;9.30;;;;;;;5.39;73.23;96664.69;5111587;28;20690;-40
2021/12/19 10:58:28;;;;;;;12.00;8.30;;;;;;;5.38;73.90;96652.56;5110925;28;20482;-40
2021/12/19 11:00:58;;;;;;;10.20;6.33;;;;;;;5.39;73.83;96651.53;5111754;28;20453;-42
2021/12/19 11:03:40;;;;;;;18.70;8.40;;;;;;;5.39;73.86;96650.72;5113345;28;20431;-42
2021/12/19 11:06:19;;;;;;;28.30;15.47;;;;;;;5.38;74.71;96641.19;5113686;28;20434;-42
2021/12/19 11:08:47;;;;;;;17.60;10.60;;;;;;;5.44;75.34;96645.63;5115641;28;20921;-40
2021/12/19 11:11:30;;;;;;;58.10;25.57;;;;;;;5.51;75.08;96631.44;5116996;28;20442;-42
2021/12/19 11:13:59;;;;;;;15.50;8.87;;;;;;;5.50;74.32;96634.28;5116847;28;20422;-42
2021/12/19 11:16:27;;;;;;;11.00;7.90;;;;;;;5.37;73.17;96629.06;5116737;28;20446;-42
2021/12/19 11:18:54;;;;;;;11.50;8.93;;;;;;;5.38;73.57;96622.75;5116705;28;20442;-42
2021/12/19 11:21:21;;;;;;;22.80;11.87;;;;;;;5.43;74.17;96628.22;5116983;27;20446;-42
2021/12/19 11:23:49;;;;;;;14.80;8.47;;;;;;;5.39;74.10;96609.41;5116633;28;20477;-38
2021/12/19 11:26:19;;;;;;;9.17;7.20;;;;;;;5.41;73.99;96612.63;5116434;28;20453;-41
2021/12/19 11:28:47;;;;;;;16.73;9.60;;;;;;;5.39;74.10;96600.69;5116451;28;20812;-40
2021/12/19 11:31:17;;;;;;;38.80;16.30;;;;;;;5.46;73.54;96601.47;5116806;28;20944;-38
2021/12/19 11:34:01;;;;;;;60.70;25.33;;;;;;;5.46;74.12;96602.31;5116453;28;20942;-39
2021/12/19 11:36:34;;;;;;;65.43;30.07;;;;;;;5.58;74.05;96594.53;5116365;27;20435;-39
2021/12/19 11:39:04;;;;;;;34.90;18.90;;;;;;;5.60;72.04;96603.03;5116723;28;20441;-39
2021/12/19 11:41:32;;;;;;;24.67;15.43;;;;;;;5.50;71.93;96565.81;5116691;28;20422;-39
2021/12/19 11:44:02;;;;;;;18.57;12.13;;;;;;;5.64;71.85;96582.38;5116632;28;20450;-36
2021/12/19 11:46:51;;;;;;;19.33;9.47;;;;;;;5.57;71.79;96577.16;5116269;28;20426;-36
2021/12/19 11:49:22;;;;;;;26.30;12.60;;;;;;;5.60;71.73;96566.19;5116509;28;20434;-33
2021/12/19 11:51:51;;;;;;;20.13;10.30;;;;;;;5.49;73.94;96558.94;5116431;28;20898;-31
2021/12/19 11:54:19;;;;;;;17.70;10.27;;;;;;;5.43;73.24;96555.31;5116032;27;20442;-33
2021/12/19 11:57:09;;;;;;;16.37;9.30;;;;;;;5.44;71.61;96559.56;5116153;27;20445;-34
2021/12/19 11:59:38;;;;;;;18.30;9.53;;;;;;;5.39;71.33;96542.78;5115917;28;20442;-33
2021/12/19 12:02:26;;;;;;;10.97;8.17;;;;;;;5.38;72.40;96544.59;5115809;28;20438;-36
2021/12/19 12:05:22;;;;;;;15.60;6.87;;;;;;;5.35;72.97;96537.09;5116356;28;20504;-33
2021/12/19 12:08:14;;;;;;;8.90;5.47;;;;;;;5.41;72.93;96525.75;5116944;28;20446;-32
2021/12/19 12:11:10;;;;;;;16.60;10.10;;;;;;;5.37;72.47;96529.00;5116074;28;20538;-35
2021/12/19 12:13:39;;;;;;;17.20;9.70;;;;;;;5.36;72.54;96516.88;5115690;28;20442;-32
2021/12/19 12:16:36;;;;;;;34.30;18.87;;;;;;;5.31;73.42;96513.06;5115555;28;20925;-33
2021/12/19 12:19:07;;;;;;;18.70;8.20;;;;;;;5.26;73.26;96498.88;5114971;28;20482;-35
2021/12/19 12:21:41;;;;;;;22.40;10.37;;;;;;;5.29;72.66;96496.66;5112425;28;20431;-37
2021/12/19 12:24:16;;;;;;;25.33;13.20;;;;;;;5.30;73.59;96493.00;5113708;28;20422;-39
2021/12/19 12:26:56;;;;;;;27.60;12.83;;;;;;;5.27;73.15;96503.13;5106752;28;20902;-39
2021/12/19 12:29:23;;;;;;;13.70;8.43;;;;;;;5.21;72.35;96483.72;5101407;28;20473;-38
2021/12/19 12:31:51;;;;;;;15.70;8.00;;;;;;;5.19;72.16;96480.50;5101138;28;20442;-40
2021/12/19 12:34:20;;;;;;;10.50;6.50;;;;;;;5.13;73.02;96479.50;5100822;28;20480;-38
2021/12/19 12:36:48;;;;;;;9.50;5.77;;;;;;;5.12;72.95;96474.47;5101499;28;20442;-39